Portada
METAR-TAF:

METAR-TAF

Aeropuertos :

Brackett Field Airport

La Verne, California, Estados Unidos

latitud: 34-06N, longitud: 117-47W, altitud: 308 m

Observación

El informe se hizo hace 6 horas y 0 minutos, a las 03:47 UTC
Viento 7 kt del suroeste
Temperatura 13°C
Humedad 77%
Presión 1014 hPa
Visibilidad: 16.1 km
Nubes dispersas a una altura de 4400 ft

METAR: KPOC 040347Z 22007KT 10SM SCT044 13/09 A2994 RMK LAST

Hora: 02:47 (09:47 UTC)


TAF: falta

Observaciones y pronósticos meteorológicos de más de 4000 aeropuertos (mensajes METAR y TAF).

Los puntos amarillos y rojos representan las estaciones disponibles.

Ponga el ratón en el punto deseado para ver el nombre de la estación.

Haga clic para ver las observaciones y los pronósticos meteorológicos.

Para cambiar el mapa : haga clic en los botones verdes con una cruz de color negro para hacer un zoom, en el botón verde con un guión para alejar o en las flechas verdes para mapas adyacentes.


METAR-TAF: